createdAt,value
2022-12-10T00:02:24.129Z,0.50
2022-12-10T00:05:12.478Z,0.50
2022-12-10T00:07:58.945Z,0.50
2022-12-10T00:10:45.300Z,0.60
2022-12-10T00:13:31.767Z,0.60
2022-12-10T00:16:20.082Z,0.50
2022-12-10T00:19:07.184Z,0.60
2022-12-10T00:21:55.287Z,0.60
2022-12-10T00:24:42.465Z,0.60
2022-12-10T00:27:29.030Z,0.60
2022-12-10T00:30:15.586Z,0.50
2022-12-10T00:33:02.033Z,0.60
2022-12-10T00:35:48.645Z,0.60
2022-12-10T00:38:37.284Z,0.60
2022-12-10T00:41:23.902Z,0.60
2022-12-10T00:44:10.725Z,0.60
2022-12-10T00:46:57.338Z,0.60
2022-12-10T00:49:43.896Z,0.60
2022-12-10T00:52:30.202Z,0.70
2022-12-10T00:55:18.240Z,0.60
2022-12-10T00:58:04.659Z,0.70
2022-12-10T01:00:51.501Z,0.70
2022-12-10T01:03:38.730Z,0.70
2022-12-10T01:06:27.742Z,0.70
2022-12-10T01:09:17.844Z,0.70
2022-12-10T01:12:06.842Z,0.70
2022-12-10T01:14:53.250Z,0.70
2022-12-10T01:17:39.894Z,0.80
2022-12-10T01:20:26.281Z,0.80
2022-12-10T01:23:12.673Z,0.80
2022-12-10T01:26:02.722Z,0.80
2022-12-10T01:28:51.390Z,0.80
2022-12-10T01:31:39.353Z,0.80
2022-12-10T01:34:26.414Z,0.80
2022-12-10T01:37:13.156Z,0.90
2022-12-10T01:39:59.546Z,0.80
2022-12-10T01:42:45.908Z,0.80
2022-12-10T01:45:33.849Z,0.90
2022-12-10T01:48:21.070Z,0.90
2022-12-10T01:51:08.133Z,0.90
2022-12-10T01:53:55.038Z,0.90
2022-12-10T01:56:45.565Z,0.90
2022-12-10T01:59:32.915Z,0.90
2022-12-10T02:02:44.066Z,0.90
2022-12-10T02:05:37.566Z,0.90
2022-12-10T02:08:29.674Z,0.90
2022-12-10T02:11:23.223Z,0.90
2022-12-10T02:14:17.215Z,1.00
2022-12-10T02:17:11.879Z,0.90
2022-12-10T02:20:14.060Z,1.00
2022-12-10T02:23:04.869Z,1.00
2022-12-10T02:26:00.373Z,1.00
2022-12-10T02:28:53.543Z,1.00
2022-12-10T02:31:45.913Z,1.00
2022-12-10T02:34:37.694Z,1.00
2022-12-10T02:37:29.146Z,1.00
2022-12-10T02:40:20.394Z,1.10
2022-12-10T02:43:08.403Z,1.10
2022-12-10T02:45:57.278Z,1.10
2022-12-10T02:48:47.650Z,1.10
2022-12-10T02:51:34.582Z,1.10
2022-12-10T02:54:42.587Z,1.20
2022-12-10T02:57:39.045Z,1.20
2022-12-10T03:00:26.887Z,1.20
2022-12-10T03:03:25.255Z,1.20
2022-12-10T03:06:18.841Z,1.20
2022-12-10T03:09:09.053Z,1.20
2022-12-10T03:12:01.222Z,1.20
2022-12-10T03:14:48.046Z,1.00
2022-12-10T03:17:34.856Z,1.10
2022-12-10T03:20:22.362Z,1.20
2022-12-10T03:23:14.361Z,1.20
2022-12-10T03:26:01.909Z,1.20
2022-12-10T03:28:52.442Z,1.20
2022-12-10T03:31:41.419Z,1.30
2022-12-10T03:34:28.233Z,1.30
2022-12-10T03:37:15.952Z,1.30
2022-12-10T03:40:05.739Z,1.30
2022-12-10T03:42:53.130Z,1.30
2022-12-10T03:45:41.056Z,1.30
2022-12-10T03:48:27.685Z,1.30
2022-12-10T03:51:14.259Z,1.20
2022-12-10T03:54:00.747Z,1.20
2022-12-10T03:56:48.939Z,1.30
2022-12-10T03:59:35.337Z,1.30
2022-12-10T04:02:21.823Z,1.30
2022-12-10T04:05:09.232Z,1.40
2022-12-10T04:07:55.762Z,1.40
2022-12-10T04:10:42.797Z,1.40
2022-12-10T04:13:50.324Z,1.40
2022-12-10T04:16:37.728Z,1.40
2022-12-10T04:19:24.814Z,1.30
2022-12-10T04:22:29.555Z,1.40
2022-12-10T04:25:41.876Z,1.40
2022-12-10T04:28:29.868Z,1.40
2022-12-10T04:31:16.369Z,1.50
2022-12-10T04:34:02.825Z,1.40
2022-12-10T04:36:49.874Z,1.40
2022-12-10T04:39:36.551Z,1.40
2022-12-10T04:42:24.140Z,1.50
2022-12-10T04:45:12.465Z,1.50
2022-12-10T04:47:58.799Z,1.50
2022-12-10T04:50:45.177Z,1.50
2022-12-10T04:53:31.792Z,1.50
2022-12-10T04:56:18.329Z,1.60
2022-12-10T04:59:06.642Z,1.50
2022-12-10T05:01:54.670Z,1.50
2022-12-10T05:04:41.366Z,1.50
2022-12-10T05:07:27.797Z,1.50
2022-12-10T05:10:14.402Z,1.50
2022-12-10T05:13:00.648Z,1.50
2022-12-10T05:15:47.088Z,1.50
2022-12-10T05:18:35.285Z,1.50
2022-12-10T05:21:23.320Z,1.50
2022-12-10T05:24:09.111Z,1.50
2022-12-10T05:26:55.911Z,1.50
2022-12-10T05:29:42.318Z,1.50
2022-12-10T05:32:28.846Z,1.50
2022-12-10T05:35:16.914Z,1.50
2022-12-10T05:38:03.721Z,1.60
2022-12-10T05:40:55.422Z,1.60
2022-12-10T05:43:43.536Z,1.60
2022-12-10T05:46:32.441Z,1.60
2022-12-10T05:49:19.328Z,1.60
2022-12-10T05:52:07.466Z,1.50
2022-12-10T05:54:54.176Z,1.60
2022-12-10T05:57:40.819Z,1.60
2022-12-10T06:00:28.125Z,1.60
2022-12-10T06:03:14.580Z,1.60
2022-12-10T06:06:01.538Z,1.60
2022-12-10T06:08:49.447Z,1.70
2022-12-10T06:11:36.261Z,1.60
2022-12-10T06:14:23.071Z,1.70
2022-12-10T06:17:09.549Z,1.60
2022-12-10T06:19:55.872Z,1.60
2022-12-10T06:22:42.310Z,1.60
2022-12-10T06:25:30.377Z,1.60
2022-12-10T06:28:17.263Z,1.60
2022-12-10T06:31:03.747Z,1.60
2022-12-10T06:33:50.911Z,1.60
2022-12-10T06:36:37.465Z,1.60
2022-12-10T06:39:24.274Z,1.60
2022-12-10T06:42:12.238Z,1.70
2022-12-10T06:44:59.050Z,1.60
2022-12-10T06:47:45.626Z,1.60
2022-12-10T06:50:32.518Z,1.70
2022-12-10T06:53:19.143Z,1.70
2022-12-10T06:56:07.010Z,1.60
2022-12-10T06:58:54.903Z,1.70
2022-12-10T07:01:42.062Z,1.70
2022-12-10T07:04:28.665Z,1.70
2022-12-10T07:07:15.231Z,1.70
2022-12-10T07:10:01.942Z,1.70
2022-12-10T07:12:48.352Z,1.70
2022-12-10T07:15:36.232Z,1.70
2022-12-10T07:18:23.038Z,1.70
2022-12-10T07:21:16.454Z,1.70
2022-12-10T07:24:04.640Z,1.70
2022-12-10T07:26:51.270Z,1.70
2022-12-10T07:29:38.117Z,1.70
2022-12-10T07:32:26.198Z,1.70
2022-12-10T07:35:12.755Z,1.70
2022-12-10T07:37:59.683Z,1.70
2022-12-10T07:40:46.131Z,1.70
2022-12-10T07:43:32.590Z,1.70
2022-12-10T07:46:21.229Z,1.70
2022-12-10T07:49:09.225Z,1.80
2022-12-10T07:51:56.090Z,1.70
2022-12-10T07:54:42.530Z,1.80
2022-12-10T07:57:30.833Z,1.70
2022-12-10T08:00:18.182Z,1.80
2022-12-10T08:03:05.149Z,1.80
2022-12-10T08:06:02.913Z,1.80
2022-12-10T08:08:50.404Z,1.80
2022-12-10T08:11:37.115Z,1.80
2022-12-10T08:14:23.605Z,3.20
2022-12-10T08:17:10.274Z,1.80
2022-12-10T08:19:56.745Z,1.90
2022-12-10T08:22:44.581Z,1.90
2022-12-10T08:25:33.788Z,1.80
2022-12-10T08:28:24.106Z,1.80
2022-12-10T08:31:12.875Z,1.80
2022-12-10T08:33:59.574Z,1.90
2022-12-10T08:36:47.221Z,1.80
2022-12-10T08:39:35.382Z,1.90
2022-12-10T08:42:22.027Z,1.90
2022-12-10T08:45:09.126Z,1.90
2022-12-10T08:47:55.677Z,1.90
2022-12-10T08:50:42.158Z,1.90
2022-12-10T08:53:28.580Z,1.90
2022-12-10T08:56:16.528Z,1.90
2022-12-10T08:59:03.355Z,1.90
2022-12-10T09:01:53.700Z,1.90
2022-12-10T09:04:43.631Z,1.90
2022-12-10T09:07:30.510Z,1.90
2022-12-10T09:10:17.522Z,1.90
2022-12-10T09:13:05.706Z,2.00
2022-12-10T09:15:53.647Z,2.00
2022-12-10T09:18:40.631Z,2.00
2022-12-10T09:21:27.535Z,2.00
2022-12-10T09:24:14.546Z,2.00
2022-12-10T09:27:02.318Z,2.00
2022-12-10T09:29:50.671Z,2.00
2022-12-10T09:32:37.536Z,2.00
2022-12-10T09:35:24.300Z,2.00
2022-12-10T09:38:11.437Z,2.10
2022-12-10T09:41:02.730Z,2.10
2022-12-10T09:43:53.550Z,2.10
2022-12-10T09:46:51.044Z,2.10
2022-12-10T09:49:47.709Z,2.10
2022-12-10T09:52:38.638Z,2.10
2022-12-10T09:55:30.069Z,2.20
2022-12-10T09:58:23.906Z,2.20
2022-12-10T10:01:18.418Z,2.20
2022-12-10T10:04:07.150Z,2.10
2022-12-10T10:06:54.212Z,2.10
2022-12-10T10:09:42.797Z,2.20
2022-12-10T10:12:30.482Z,2.20
2022-12-10T10:15:20.487Z,2.10
2022-12-10T10:18:15.477Z,2.10
2022-12-10T10:21:03.577Z,2.10
2022-12-10T10:23:50.777Z,2.20
2022-12-10T10:26:37.861Z,2.10
2022-12-10T10:29:27.401Z,2.20
2022-12-10T10:32:18.215Z,2.10
2022-12-10T10:35:06.679Z,2.20
2022-12-10T10:37:59.308Z,2.20
2022-12-10T10:40:48.347Z,2.20
2022-12-10T10:43:42.308Z,2.20
2022-12-10T10:46:29.776Z,2.10
2022-12-10T10:49:28.576Z,2.20
2022-12-10T10:52:18.584Z,2.20
2022-12-10T10:55:08.434Z,2.20
2022-12-10T10:57:55.268Z,2.10
2022-12-10T11:00:42.040Z,2.10
2022-12-10T11:03:30.851Z,2.10
2022-12-10T11:06:19.049Z,2.20
2022-12-10T11:09:07.395Z,2.20
2022-12-10T11:12:01.750Z,2.20
2022-12-10T11:14:48.400Z,2.20
2022-12-10T11:17:35.331Z,2.20
2022-12-10T11:20:24.843Z,2.10
2022-12-10T11:23:16.343Z,2.10
2022-12-10T11:26:18.631Z,2.20
2022-12-10T11:29:26.382Z,2.20
2022-12-10T11:32:28.575Z,2.30
2022-12-10T11:35:18.709Z,2.20
2022-12-10T11:38:13.476Z,2.30
2022-12-10T11:41:08.030Z,2.30
2022-12-10T11:44:15.392Z,2.30
2022-12-10T11:47:25.554Z,2.30
2022-12-10T11:50:21.587Z,2.30
2022-12-10T11:53:41.958Z,2.30
2022-12-10T11:56:32.696Z,2.30
2022-12-10T11:59:52.928Z,2.30
2022-12-10T12:03:03.209Z,2.20
2022-12-10T12:06:08.636Z,2.20
2022-12-10T12:09:02.196Z,2.20
2022-12-10T12:12:07.447Z,2.20
2022-12-10T12:15:00.227Z,2.30
2022-12-10T12:17:50.734Z,2.30
2022-12-10T12:20:43.625Z,2.30
2022-12-10T12:23:35.532Z,2.30
2022-12-10T12:26:28.098Z,2.30
2022-12-10T12:29:19.954Z,2.40
2022-12-10T12:32:15.454Z,2.30
2022-12-10T12:35:06.506Z,2.30
2022-12-10T12:37:59.484Z,2.20
2022-12-10T12:40:53.654Z,2.10
2022-12-10T12:43:49.781Z,2.20
2022-12-10T12:46:41.499Z,2.20
2022-12-10T12:49:32.550Z,2.20
2022-12-10T12:52:33.402Z,2.20
2022-12-10T12:55:26.137Z,2.20
2022-12-10T12:58:28.827Z,2.30
2022-12-10T13:01:25.233Z,2.30
2022-12-10T13:04:13.263Z,2.30
2022-12-10T13:07:29.807Z,2.30
2022-12-10T13:10:27.829Z,2.30
2022-12-10T13:13:27.521Z,2.30
2022-12-10T13:16:36.874Z,2.30
2022-12-10T13:19:32.738Z,2.60
2022-12-10T13:22:52.215Z,2.50
2022-12-10T13:25:57.475Z,2.40
2022-12-10T13:28:52.452Z,2.40
2022-12-10T13:31:40.246Z,2.30
2022-12-10T13:34:38.049Z,2.30
2022-12-10T13:37:33.188Z,2.30
2022-12-10T13:40:27.464Z,2.30
2022-12-10T13:43:46.013Z,2.30
2022-12-10T13:46:35.684Z,2.40
2022-12-10T13:49:24.371Z,2.30
2022-12-10T13:52:21.066Z,2.30
2022-12-10T13:55:24.945Z,2.30
2022-12-10T13:58:36.397Z,2.30
2022-12-10T14:01:38.141Z,2.30
2022-12-10T14:04:46.031Z,2.30
2022-12-10T14:07:33.756Z,2.30
2022-12-10T14:10:25.321Z,2.10
2022-12-10T14:13:16.121Z,2.20
2022-12-10T14:16:07.580Z,2.30
2022-12-10T14:18:57.846Z,2.30
2022-12-10T14:21:47.044Z,2.30
2022-12-10T14:24:37.860Z,2.30
2022-12-10T14:27:28.031Z,2.30
2022-12-10T14:30:19.946Z,2.30
2022-12-10T14:33:07.786Z,2.20
2022-12-10T14:35:55.241Z,2.20
2022-12-10T14:38:41.845Z,2.20
2022-12-10T14:41:37.511Z,2.20
2022-12-10T14:44:28.490Z,2.20
2022-12-10T14:47:17.663Z,2.20
2022-12-10T14:50:12.233Z,2.20
2022-12-10T14:52:58.641Z,2.20
2022-12-10T14:55:47.280Z,2.20
2022-12-10T14:58:42.245Z,2.20
2022-12-10T15:01:31.516Z,2.20
2022-12-10T15:04:26.254Z,2.20
2022-12-10T15:07:19.193Z,2.20
2022-12-10T15:10:14.965Z,2.10
2022-12-10T15:13:02.702Z,2.20
2022-12-10T15:15:52.195Z,2.10
2022-12-10T15:18:40.256Z,1.60
2022-12-10T15:21:27.441Z,2.10
2022-12-10T15:24:22.932Z,2.10
2022-12-10T15:27:18.461Z,2.10
2022-12-10T15:30:25.207Z,2.10
2022-12-10T15:33:27.797Z,2.10
2022-12-10T15:36:21.265Z,2.10
2022-12-10T15:39:17.697Z,2.10
2022-12-10T15:42:08.181Z,2.10
2022-12-10T15:44:58.710Z,2.10
2022-12-10T15:47:45.404Z,2.10
2022-12-10T15:50:32.195Z,2.10
2022-12-10T15:53:32.083Z,2.10
2022-12-10T15:56:21.733Z,2.10
2022-12-10T15:59:10.861Z,2.10
2022-12-10T16:01:58.178Z,2.00
2022-12-10T16:04:44.495Z,2.10
2022-12-10T16:07:30.897Z,2.10
2022-12-10T16:10:19.631Z,2.00
2022-12-10T16:13:08.765Z,2.00
2022-12-10T16:16:00.283Z,2.00
2022-12-10T16:18:47.993Z,2.00
2022-12-10T16:21:34.697Z,2.10
2022-12-10T16:24:21.331Z,2.00
2022-12-10T16:27:13.991Z,2.00
2022-12-10T16:30:01.370Z,2.00
2022-12-10T16:32:49.686Z,2.00
2022-12-10T16:35:36.176Z,2.00
2022-12-10T16:38:23.093Z,1.90
2022-12-10T16:41:20.096Z,1.90
2022-12-10T16:44:06.519Z,1.90
2022-12-10T16:46:53.677Z,1.90
2022-12-10T16:49:41.518Z,2.00
2022-12-10T16:52:28.167Z,2.00
2022-12-10T16:55:16.227Z,1.90
2022-12-10T16:58:03.025Z,1.90
2022-12-10T17:00:52.535Z,1.90
2022-12-10T17:03:39.182Z,1.90
2022-12-10T17:06:28.407Z,1.90
2022-12-10T17:09:14.875Z,1.90
2022-12-10T17:12:01.447Z,1.90
2022-12-10T17:14:47.932Z,1.90
2022-12-10T17:17:35.050Z,1.90
2022-12-10T17:20:22.141Z,1.90
2022-12-10T17:23:09.947Z,1.90
2022-12-10T17:25:58.385Z,1.90
2022-12-10T17:28:44.919Z,1.90
2022-12-10T17:31:31.452Z,1.80
2022-12-10T17:34:18.353Z,1.70
2022-12-10T17:37:11.438Z,1.70
2022-12-10T17:39:59.652Z,1.80
2022-12-10T17:42:46.835Z,1.70
2022-12-10T17:45:33.402Z,1.80
2022-12-10T17:48:20.427Z,1.80
2022-12-10T17:51:07.288Z,1.80
2022-12-10T17:53:53.915Z,1.80
2022-12-10T17:56:43.980Z,1.80
2022-12-10T17:59:32.986Z,1.80
2022-12-10T18:02:19.765Z,1.80
2022-12-10T18:05:06.757Z,1.80
2022-12-10T18:07:53.186Z,1.80
2022-12-10T18:10:41.031Z,1.80
2022-12-10T18:13:29.244Z,1.80
2022-12-10T18:16:18.199Z,1.80
2022-12-10T18:19:09.337Z,1.80
2022-12-10T18:21:55.952Z,1.80
2022-12-10T18:24:42.804Z,1.80
2022-12-10T18:27:29.179Z,1.80
2022-12-10T18:30:19.198Z,1.80
2022-12-10T18:33:05.797Z,1.80
2022-12-10T18:35:52.714Z,1.80
2022-12-10T18:38:39.551Z,1.80
2022-12-10T18:41:26.741Z,1.80
2022-12-10T18:44:14.186Z,1.80
2022-12-10T18:47:02.260Z,-0.40
2022-12-10T18:49:49.036Z,1.70
2022-12-10T18:52:35.496Z,1.70
2022-12-10T18:55:24.014Z,1.70
2022-12-10T18:58:11.136Z,1.70
2022-12-10T19:00:58.012Z,1.70
2022-12-10T19:03:48.763Z,1.60
2022-12-10T19:06:36.968Z,1.70
2022-12-10T19:09:23.402Z,1.70
2022-12-10T19:12:11.182Z,1.60
2022-12-10T19:14:58.023Z,1.70
2022-12-10T19:17:44.918Z,1.70
2022-12-10T19:20:33.534Z,1.70
2022-12-10T19:23:20.189Z,1.70
2022-12-10T19:26:25.962Z,1.70
2022-12-10T19:29:15.613Z,1.70
2022-12-10T19:32:02.062Z,1.70
2022-12-10T19:34:48.471Z,1.70
2022-12-10T19:37:36.362Z,1.70
2022-12-10T19:40:24.943Z,1.70
2022-12-10T19:43:14.407Z,1.70
2022-12-10T19:46:01.326Z,1.70
2022-12-10T19:48:48.786Z,1.70
2022-12-10T19:51:35.317Z,1.70
2022-12-10T19:54:23.125Z,1.70
2022-12-10T19:57:12.483Z,1.70
2022-12-10T19:59:59.040Z,1.60
2022-12-10T20:02:45.705Z,1.60
2022-12-10T20:05:32.429Z,1.60
2022-12-10T20:08:19.071Z,1.60
2022-12-10T20:11:07.312Z,1.60
2022-12-10T20:13:54.078Z,1.70
2022-12-10T20:16:41.546Z,1.60
2022-12-10T20:19:28.286Z,1.60
2022-12-10T20:22:14.737Z,1.60
2022-12-10T20:25:01.322Z,1.70
2022-12-10T20:27:49.283Z,1.70
2022-12-10T20:30:36.757Z,1.70
2022-12-10T20:33:45.223Z,1.70
2022-12-10T20:36:30.149Z,1.60
2022-12-10T20:39:19.689Z,1.70
2022-12-10T20:42:06.254Z,1.60
2022-12-10T20:44:54.553Z,1.60
2022-12-10T20:47:41.382Z,1.60
2022-12-10T20:50:28.128Z,1.60
2022-12-10T20:53:15.147Z,1.60
2022-12-10T20:56:02.532Z,1.60
2022-12-10T20:58:50.813Z,1.50
2022-12-10T21:01:38.921Z,1.60
2022-12-10T21:04:26.646Z,1.60
2022-12-10T21:07:15.125Z,1.60
2022-12-10T21:10:01.695Z,1.60
2022-12-10T21:12:48.022Z,1.60
2022-12-10T21:15:35.326Z,1.60
2022-12-10T21:18:24.256Z,1.60
2022-12-10T21:21:14.075Z,1.60
2022-12-10T21:24:00.714Z,1.60
2022-12-10T21:26:47.611Z,1.60
2022-12-10T21:29:34.172Z,1.60
2022-12-10T21:32:20.502Z,1.60
2022-12-10T21:35:09.347Z,1.60
2022-12-10T21:37:56.066Z,1.60
2022-12-10T21:40:44.316Z,1.60
2022-12-10T21:43:30.127Z,1.60
2022-12-10T21:46:16.669Z,1.60
2022-12-10T21:49:03.984Z,1.70
2022-12-10T21:51:51.963Z,1.60
2022-12-10T21:54:38.716Z,1.60
2022-12-10T21:57:25.244Z,1.60
2022-12-10T22:00:13.599Z,1.50
2022-12-10T22:03:00.225Z,1.50
2022-12-10T22:05:47.132Z,1.50
2022-12-10T22:08:35.837Z,1.50
2022-12-10T22:11:22.556Z,1.60
2022-12-10T22:14:09.403Z,1.50
2022-12-10T22:16:56.088Z,1.60
2022-12-10T22:19:43.214Z,1.60
2022-12-10T22:22:29.982Z,1.50
2022-12-10T22:25:17.886Z,1.50
2022-12-10T22:28:04.878Z,1.60
2022-12-10T22:30:51.330Z,1.50
2022-12-10T22:33:38.519Z,1.50
2022-12-10T22:36:25.513Z,1.50
2022-12-10T22:39:12.120Z,1.60
2022-12-10T22:42:00.124Z,1.50
2022-12-10T22:44:46.859Z,1.50
2022-12-10T22:47:33.202Z,1.50
2022-12-10T22:50:19.901Z,1.60
2022-12-10T22:53:06.718Z,1.60
2022-12-10T22:55:59.011Z,1.60
2022-12-10T22:58:47.032Z,1.50
2022-12-10T23:01:33.999Z,1.60
2022-12-10T23:04:20.852Z,1.60
2022-12-10T23:07:08.607Z,1.60
2022-12-10T23:09:55.091Z,1.60
2022-12-10T23:12:59.446Z,1.60
2022-12-10T23:15:48.321Z,1.40
2022-12-10T23:18:35.206Z,1.60
2022-12-10T23:21:24.050Z,1.60
2022-12-10T23:24:11.160Z,1.60
2022-12-10T23:26:57.671Z,1.60
2022-12-10T23:29:44.627Z,1.60
2022-12-10T23:32:32.632Z,1.60
2022-12-10T23:35:19.772Z,1.60
2022-12-10T23:38:06.559Z,1.60
2022-12-10T23:40:53.160Z,1.60
2022-12-10T23:43:40.017Z,1.60
2022-12-10T23:46:26.582Z,1.60
2022-12-10T23:49:14.823Z,1.60
2022-12-10T23:52:07.771Z,1.60
2022-12-10T23:54:56.329Z,1.60
2022-12-10T23:57:42.928Z,1.50
